Time,TemperatureF,DewpointF,PressureIn,WindDirection,WindDirectionDegrees,WindSpeedMPH,WindSpeedGustMPH,Humidity,HourlyPrecipIn,Conditions,Clouds,dailyrainin,SoftwareType,DateUTC
2013-05-14 00:00:00,66.4,46.7,29.77,WSW,240,1.0,2.0,49,0.00,,,0.00,Wunderground v.1.15,2013-05-14 05:00:00,
2013-05-14 00:10:00,66.4,46.7,29.77,SW,232,0.0,2.0,49,0.00,,,0.00,Wunderground v.1.15,2013-05-14 05:10:00,
2013-05-14 00:20:00,64.8,47.3,29.76,SW,232,2.0,2.0,53,0.00,,,0.00,Wunderground v.1.15,2013-05-14 05:20:00,
2013-05-14 00:30:00,64.9,46.8,29.76,SW,232,0.0,2.0,52,0.00,,,0.00,Wunderground v.1.15,2013-05-14 05:30:00,
2013-05-14 00:40:00,65.1,46.5,29.76,SW,232,0.0,2.0,51,0.00,,,0.00,Wunderground v.1.15,2013-05-14 05:40:00,
2013-05-14 00:45:00,65.5,47.4,29.76,SW,232,0.0,2.0,52,0.00,,,0.00,Wunderground v.1.15,2013-05-14 05:45:00,
2013-05-14 00:55:00,64.2,47.2,29.76,SW,232,0.0,2.0,54,0.00,,,0.00,Wunderground v.1.15,2013-05-14 05:55:00,
2013-05-14 01:00:00,63.9,46.9,29.76,SW,232,0.0,2.0,54,0.00,,,0.00,Wunderground v.1.15,2013-05-14 06:00:00,
2013-05-14 01:10:00,63.9,47.9,29.75,SW,232,0.0,2.0,56,0.00,,,0.00,Wunderground v.1.15,2013-05-14 06:10:00,
2013-05-14 01:20:00,63.6,48.1,29.75,SW,232,0.0,2.0,57,0.00,,,0.00,Wunderground v.1.15,2013-05-14 06:20:00,
2013-05-14 01:30:00,65.0,48.4,29.75,SW,232,2.0,2.0,55,0.00,,,0.00,Wunderground v.1.15,2013-05-14 06:30:00,
2013-05-14 01:40:00,65.4,48.8,29.75,SW,232,1.0,2.0,55,0.00,,,0.00,Wunderground v.1.15,2013-05-14 06:40:00,
2013-05-14 01:45:00,65.3,48.7,29.74,SW,232,1.0,2.0,55,0.00,,,0.00,Wunderground v.1.15,2013-05-14 06:45:00,
2013-05-14 01:55:00,65.3,48.7,29.74,SW,232,1.0,2.0,55,0.00,,,0.00,Wunderground v.1.15,2013-05-14 06:55:00,
2013-05-14 02:00:00,64.6,49.0,29.74,SW,232,0.0,2.0,57,0.00,,,0.00,Wunderground v.1.15,2013-05-14 07:00:00,
2013-05-14 02:10:00,63.5,48.9,29.73,SW,232,0.0,2.0,59,0.00,,,0.00,Wunderground v.1.15,2013-05-14 07:10:00,
2013-05-14 02:20:00,63.3,49.2,29.73,SW,232,0.0,2.0,60,0.00,,,0.00,Wunderground v.1.15,2013-05-14 07:20:00,
2013-05-14 02:30:00,64.3,49.7,29.72,SW,232,1.0,2.0,59,0.00,,,0.00,Wunderground v.1.15,2013-05-14 07:30:00,
2013-05-14 02:40:00,64.2,49.1,29.72,SW,232,1.0,2.0,58,0.00,,,0.00,Wunderground v.1.15,2013-05-14 07:40:00,
2013-05-14 02:45:00,64.1,49.0,29.72,SW,232,2.0,4.0,58,0.00,,,0.00,Wunderground v.1.15,2013-05-14 07:45:00,
2013-05-14 02:50:00,63.9,48.8,29.71,SW,232,2.0,2.0,58,0.00,,,0.00,Wunderground v.1.15,2013-05-14 07:50:00,
2013-05-14 03:00:00,63.5,48.9,29.71,SW,232,2.0,2.0,59,0.00,,,0.00,Wunderground v.1.15,2013-05-14 08:00:00,
2013-05-14 03:10:00,63.4,48.8,29.71,SW,232,1.0,1.0,59,0.00,,,0.00,Wunderground v.1.15,2013-05-14 08:10:00,
2013-05-14 03:20:00,63.1,48.5,29.71,SW,232,0.0,2.0,59,0.00,,,0.00,Wunderground v.1.15,2013-05-14 08:20:00,
2013-05-14 03:25:00,62.9,48.3,29.70,SW,232,0.0,2.0,59,0.00,,,0.00,Wunderground v.1.15,2013-05-14 08:25:00,
2013-05-14 03:30:00,62.7,48.2,29.70,SW,232,0.0,2.0,59,0.00,,,0.00,Wunderground v.1.15,2013-05-14 08:30:00,
2013-05-14 03:40:00,62.9,47.9,29.70,SW,232,1.0,2.0,58,0.00,,,0.00,Wunderground v.1.15,2013-05-14 08:40:00,
2013-05-14 03:50:00,63.7,47.7,29.69,SW,232,2.0,3.0,56,0.00,,,0.00,Wunderground v.1.15,2013-05-14 08:50:00,
2013-05-14 04:00:00,64.9,47.9,29.69,SW,232,3.0,3.0,54,0.00,,,0.00,Wunderground v.1.15,2013-05-14 09:00:00,
2013-05-14 04:10:00,65.4,47.8,29.69,SSW,194,3.0,3.0,53,0.00,,,0.00,Wunderground v.1.15,2013-05-14 09:10:00,
2013-05-14 04:15:00,64.6,47.6,29.69,SSW,194,2.0,4.0,54,0.00,,,0.00,Wunderground v.1.15,2013-05-14 09:15:00,
2013-05-14 04:25:00,62.7,47.2,29.69,SSW,202,2.0,5.0,57,0.00,,,0.00,Wunderground v.1.15,2013-05-14 09:25:00,
2013-05-14 04:35:00,62.8,47.8,29.68,SSW,207,4.0,5.0,58,0.00,,,0.00,Wunderground v.1.15,2013-05-14 09:35:00,
2013-05-14 04:40:00,62.9,47.9,29.68,SSW,211,5.0,7.0,58,0.00,,,0.00,Wunderground v.1.15,2013-05-14 09:40:00,
2013-05-14 04:50:00,62.4,47.4,29.68,SSW,195,5.0,5.0,58,0.00,,,0.00,Wunderground v.1.15,2013-05-14 09:50:00,
2013-05-14 05:00:00,61.7,47.7,29.67,SSW,211,5.0,5.0,60,0.00,,,0.00,Wunderground v.1.15,2013-05-14 10:00:00,
2013-05-14 05:10:00,61.1,47.5,29.68,SSW,211,4.0,4.0,61,0.00,,,0.00,Wunderground v.1.15,2013-05-14 10:10:00,
2013-05-14 05:20:00,60.3,47.2,29.67,SSW,213,3.0,3.0,62,0.00,,,0.00,Wunderground v.1.15,2013-05-14 10:20:00,
2013-05-14 05:25:00,60.3,47.6,29.67,SW,225,4.0,4.0,63,0.00,,,0.00,Wunderground v.1.15,2013-05-14 10:25:00,
2013-05-14 05:35:00,62.3,47.8,29.67,SW,223,6.0,6.0,59,0.00,,,0.00,Wunderground v.1.15,2013-05-14 10:35:00,
2013-05-14 05:40:00,62.7,47.7,29.67,SW,221,7.0,7.0,58,0.00,,,0.00,Wunderground v.1.15,2013-05-14 10:40:00,
2013-05-14 05:50:00,62.6,47.1,29.67,SW,234,6.0,6.0,57,0.00,,,0.00,Wunderground v.1.15,2013-05-14 10:50:00,
2013-05-14 06:00:00,62.5,47.1,29.67,SW,217,5.0,8.0,57,0.00,,,0.00,Wunderground v.1.15,2013-05-14 11:00:00,
2013-05-14 06:10:00,61.8,46.4,29.67,SW,217,5.0,5.0,57,0.00,,,0.00,Wunderground v.1.15,2013-05-14 11:10:00,
2013-05-14 06:20:00,61.4,46.5,29.67,SW,216,5.0,8.0,58,0.00,,,0.00,Wunderground v.1.15,2013-05-14 11:20:00,
2013-05-14 06:30:00,60.6,46.2,29.66,SSW,210,5.0,5.0,59,0.00,,,0.00,Wunderground v.1.15,2013-05-14 11:30:00,
2013-05-14 06:40:00,60.5,46.5,29.66,SSW,210,4.0,8.0,60,0.00,,,0.00,Wunderground v.1.15,2013-05-14 11:40:00,
2013-05-14 06:50:00,60.4,46.9,29.66,SSW,209,4.0,8.0,61,0.00,,,0.00,Wunderground v.1.15,2013-05-14 11:50:00,
2013-05-14 06:55:00,60.5,47.0,29.66,SSW,209,4.0,8.0,61,0.00,,,0.00,Wunderground v.1.15,2013-05-14 11:55:00,
2013-05-14 07:00:00,60.7,47.6,29.66,SSW,210,4.0,8.0,62,0.00,,,0.00,Wunderground v.1.15,2013-05-14 12:00:00,
2013-05-14 07:10:00,62.0,47.5,29.66,SSW,212,5.0,8.0,59,0.00,,,0.00,Wunderground v.1.15,2013-05-14 12:10:00,
2013-05-14 07:20:00,64.3,47.3,29.66,SW,220,6.0,8.0,54,0.00,,,0.00,Wunderground v.1.15,2013-05-14 12:20:00,
2013-05-14 07:30:00,65.7,47.6,29.66,SSW,211,7.0,7.0,52,0.00,,,0.00,Wunderground v.1.15,2013-05-14 12:30:00,
2013-05-14 07:40:00,67.0,47.2,29.65,SW,223,6.0,6.0,49,0.00,,,0.00,Wunderground v.1.15,2013-05-14 12:40:00,
2013-05-14 07:45:00,68.0,47.0,29.65,WSW,238,6.0,7.0,47,0.00,,,0.00,Wunderground v.1.15,2013-05-14 12:45:00,
2013-05-14 07:55:00,70.3,46.7,29.65,SW,226,7.0,8.0,43,0.00,,,0.00,Wunderground v.1.15,2013-05-14 12:55:00,
2013-05-14 08:05:00,71.9,46.3,29.64,SW,218,8.0,8.0,40,0.00,,,0.00,Wunderground v.1.15,2013-05-14 13:05:00,
2013-05-14 08:10:00,72.3,45.9,29.64,SW,225,7.0,9.0,39,0.00,,,0.00,Wunderground v.1.15,2013-05-14 13:10:00,
2013-05-14 08:20:00,73.7,46.5,29.64,SW,215,7.0,7.0,38,0.00,,,0.00,Wunderground v.1.15,2013-05-14 13:20:00,
2013-05-14 08:30:00,75.6,46.0,29.65,WSW,244,7.0,8.0,35,0.00,,,0.00,Wunderground v.1.15,2013-05-14 13:30:00,
2013-05-14 08:40:00,78.1,44.1,29.65,WSW,254,9.0,9.0,30,0.00,,,0.00,Wunderground v.1.15,2013-05-14 13:40:00,
2013-05-14 08:50:00,79.5,43.5,29.64,WSW,248,9.0,11.0,28,0.00,,,0.00,Wunderground v.1.15,2013-05-14 13:50:00,
2013-05-14 09:00:00,81.3,43.1,29.64,WSW,254,10.0,10.0,26,0.00,,,0.00,Wunderground v.1.15,2013-05-14 14:00:00,
2013-05-14 09:10:00,83.2,42.6,29.64,SW,227,10.0,10.0,24,0.00,,,0.00,Wunderground v.1.15,2013-05-14 14:10:00,
2013-05-14 09:20:00,84.7,40.4,29.63,WSW,244,12.0,14.0,21,0.00,,,0.00,Wunderground v.1.15,2013-05-14 14:20:00,
2013-05-14 09:30:00,86.4,40.6,29.63,WSW,239,14.0,14.0,20,0.00,,,0.00,Wunderground v.1.15,2013-05-14 14:30:00,
2013-05-14 09:40:00,87.4,42.7,29.62,WSW,238,12.0,16.0,21,0.00,,,0.00,Wunderground v.1.15,2013-05-14 14:40:00,
2013-05-14 09:45:00,87.5,40.2,29.62,SW,236,13.0,16.0,19,0.00,,,0.00,Wunderground v.1.15,2013-05-14 14:45:00,
2013-05-14 09:55:00,89.6,40.5,29.61,WSW,238,14.0,15.0,18,0.00,,,0.00,Wunderground v.1.15,2013-05-14 14:55:00,
2013-05-14 10:00:00,90.3,39.6,29.61,SW,219,14.0,14.0,17,0.00,,,0.00,Wunderground v.1.15,2013-05-14 15:00:00,
2013-05-14 10:10:00,92.1,37.8,29.60,WSW,244,14.0,15.0,15,0.00,,,0.00,Wunderground v.1.15,2013-05-14 15:10:00,
2013-05-14 10:20:00,93.3,38.8,29.60,SW,232,15.0,20.0,15,0.00,,,0.00,Wunderground v.1.15,2013-05-14 15:20:00,
2013-05-14 10:30:00,94.3,37.8,29.59,WSW,243,17.0,19.0,14,0.00,,,0.00,Wunderground v.1.15,2013-05-14 15:30:00,
2013-05-14 10:40:00,94.4,37.9,29.59,WSW,244,17.0,17.0,14,0.00,,,0.00,Wunderground v.1.15,2013-05-14 15:40:00,
2013-05-14 10:50:00,96.7,35.7,29.60,WSW,240,18.0,24.0,12,0.00,,,0.00,Wunderground v.1.15,2013-05-14 15:50:00,
2013-05-14 10:55:00,96.2,35.4,29.60,WSW,246,20.0,24.0,12,0.00,,,0.00,Wunderground v.1.15,2013-05-14 15:55:00,
2013-05-14 11:00:00,96.0,37.2,29.61,WSW,252,21.0,21.0,13,0.00,,,0.00,Wunderground v.1.15,2013-05-14 16:00:00,
2013-05-14 11:10:00,96.7,37.8,29.60,West,263,20.0,20.0,13,0.00,,,0.00,Wunderground v.1.15,2013-05-14 16:10:00,
2013-05-14 11:20:00,96.9,37.9,29.60,West,263,18.0,21.0,13,0.00,,,0.00,Wunderground v.1.15,2013-05-14 16:20:00,
2013-05-14 11:30:00,97.6,36.4,29.60,WSW,238,22.0,22.0,12,0.00,,,0.00,Wunderground v.1.15,2013-05-14 16:30:00,
2013-05-14 11:35:00,98.3,37.0,29.60,WSW,245,22.0,22.0,12,0.00,,,0.00,Wunderground v.1.15,2013-05-14 16:35:00,
2013-05-14 11:40:00,97.8,36.6,29.60,WSW,245,20.0,20.0,12,0.00,,,0.00,Wunderground v.1.15,2013-05-14 16:40:00,
2013-05-14 11:50:00,98.3,34.8,29.60,West,271,19.0,22.0,11,0.00,,,0.00,Wunderground v.1.15,2013-05-14 16:50:00,
2013-05-14 12:00:00,97.2,36.1,29.60,West,263,18.0,30.0,12,0.00,,,0.00,Wunderground v.1.15,2013-05-14 17:00:00,
2013-05-14 12:10:00,98.0,36.7,29.60,West,269,16.0,16.0,12,0.00,,,0.00,Wunderground v.1.15,2013-05-14 17:10:00,
2013-05-14 12:15:00,96.9,33.7,29.60,West,263,16.0,17.0,11,0.00,,,0.00,Wunderground v.1.15,2013-05-14 17:15:00,
2013-05-14 12:25:00,96.6,33.5,29.60,WNW,290,15.0,20.0,11,0.00,,,0.00,Wunderground v.1.15,2013-05-14 17:25:00,
2013-05-14 12:35:00,95.6,36.9,29.61,WNW,298,15.0,30.0,13,0.00,,,0.00,Wunderground v.1.15,2013-05-14 17:35:00,
2013-05-14 12:40:00,95.3,34.7,29.61,West,277,14.0,30.0,12,0.00,,,0.00,Wunderground v.1.15,2013-05-14 17:40:00,
2013-05-14 12:50:00,95.0,38.3,29.61,NW,319,15.0,15.0,14,0.00,,,0.00,Wunderground v.1.15,2013-05-14 17:50:00,
2013-05-14 13:00:00,93.6,39.0,29.61,WNW,300,15.0,30.0,15,0.00,,,0.00,Wunderground v.1.15,2013-05-14 18:00:00,
2013-05-14 13:10:00,94.5,37.9,29.61,WNW,286,11.0,30.0,14,0.00,,,0.00,Wunderground v.1.15,2013-05-14 18:10:00,
2013-05-14 13:20:00,96.6,35.7,29.61,WNW,296,11.0,30.0,12,0.00,,,0.00,Wunderground v.1.15,2013-05-14 18:20:00,
2013-05-14 13:25:00,96.4,37.5,29.61,NNE,12,11.0,30.0,13,0.00,,,0.00,Wunderground v.1.15,2013-05-14 18:25:00,
2013-05-14 13:35:00,95.1,40.2,29.61,NW,308,13.0,30.0,15,0.00,,,0.00,Wunderground v.1.15,2013-05-14 18:35:00,
2013-05-14 13:40:00,94.7,39.9,29.61,WNW,288,13.0,13.0,15,0.00,,,0.00,Wunderground v.1.15,2013-05-14 18:40:00,
2013-05-14 13:50:00,94.8,39.9,29.61,NW,310,12.0,12.0,15,0.00,,,0.00,Wunderground v.1.15,2013-05-14 18:50:00,
2013-05-14 14:00:00,95.7,38.9,29.61,North,355,12.0,12.0,14,0.00,,,0.00,Wunderground v.1.15,2013-05-14 19:00:00,
2013-05-14 14:10:00,95.9,39.0,29.61,NW,313,11.0,30.0,14,0.00,,,0.00,Wunderground v.1.15,2013-05-14 19:10:00,
2013-05-14 14:20:00,96.5,37.6,29.61,WNW,301,12.0,30.0,13,0.00,,,0.00,Wunderground v.1.15,2013-05-14 19:20:00,
2013-05-14 14:25:00,96.2,39.3,29.61,North,355,11.0,30.0,14,0.00,,,0.00,Wunderground v.1.15,2013-05-14 19:25:00,
2013-05-14 14:30:00,96.3,39.4,29.61,NNW,333,10.0,30.0,14,0.00,,,0.00,Wunderground v.1.15,2013-05-14 19:30:00,
2013-05-14 14:40:00,96.0,39.1,29.61,NNW,345,11.0,30.0,14,0.00,,,0.00,Wunderground v.1.15,2013-05-14 19:40:00,
2013-05-14 14:50:00,94.8,38.2,29.61,North,355,12.0,30.0,14,0.00,,,0.00,Wunderground v.1.15,2013-05-14 19:50:00,
2013-05-14 15:00:00,93.4,40.5,29.61,NNW,346,10.0,30.0,16,0.00,,,0.00,Wunderground v.1.15,2013-05-14 20:00:00,
2013-05-14 15:10:00,94.3,39.5,29.61,NW,322,11.0,30.0,15,0.00,,,0.00,Wunderground v.1.15,2013-05-14 20:10:00,
2013-05-14 15:15:00,94.4,41.3,29.61,North,355,10.0,30.0,16,0.00,,,0.00,Wunderground v.1.15,2013-05-14 20:15:00,
2013-05-14 15:20:00,94.4,42.9,29.62,NW,321,10.0,10.0,17,0.00,,,0.00,Wunderground v.1.15,2013-05-14 20:20:00,
2013-05-14 15:30:00,93.6,42.2,29.61,WNW,293,11.0,11.0,17,0.00,,,0.00,Wunderground v.1.15,2013-05-14 20:30:00,
2013-05-14 15:40:00,93.3,40.4,29.61,NNW,334,11.0,11.0,16,0.00,,,0.00,Wunderground v.1.15,2013-05-14 20:40:00,
2013-05-14 15:50:00,94.7,41.5,29.61,North,360,10.0,10.0,16,0.00,,,0.00,Wunderground v.1.15,2013-05-14 20:50:00,
2013-05-14 15:55:00,94.7,39.9,29.61,NNE,24,11.0,16.0,15,0.00,,,0.00,Wunderground v.1.15,2013-05-14 20:55:00,
2013-05-14 16:05:00,94.6,43.0,29.60,North,5,10.0,30.0,17,0.00,,,0.00,Wunderground v.1.15,2013-05-14 21:05:00,
2013-05-14 16:10:00,94.5,41.4,29.60,NNW,329,10.0,30.0,16,0.00,,,0.00,Wunderground v.1.15,2013-05-14 21:10:00,
2013-05-14 16:20:00,94.3,42.8,29.60,North,360,10.0,30.0,17,0.00,,,0.00,Wunderground v.1.15,2013-05-14 21:20:00,
2013-05-14 16:30:00,94.1,41.1,29.60,North,360,9.0,30.0,16,0.00,,,0.00,Wunderground v.1.15,2013-05-14 21:30:00,
2013-05-14 16:40:00,93.9,44.0,29.60,NNW,345,9.0,9.0,18,0.00,,,0.00,Wunderground v.1.15,2013-05-14 21:40:00,
2013-05-14 16:50:00,94.1,41.1,29.60,North,9,8.0,30.0,16,0.00,,,0.00,Wunderground v.1.15,2013-05-14 21:50:00,
2013-05-14 16:55:00,94.1,42.6,29.60,North,360,11.0,30.0,17,0.00,,,0.00,Wunderground v.1.15,2013-05-14 21:55:00,
2013-05-14 17:00:00,93.9,42.5,29.60,NNE,22,12.0,12.0,17,0.00,,,0.00,Wunderground v.1.15,2013-05-14 22:00:00,
2013-05-14 17:10:00,93.9,42.5,29.60,North,350,10.0,30.0,17,0.00,,,0.00,Wunderground v.1.15,2013-05-14 22:10:00,
2013-05-14 17:20:00,93.0,44.6,29.60,NNE,13,13.0,30.0,19,0.00,,,0.00,Wunderground v.1.15,2013-05-14 22:20:00,
2013-05-14 17:30:00,92.8,45.8,29.60,NE,38,11.0,11.0,20,0.00,,,0.00,Wunderground v.1.15,2013-05-14 22:30:00,
2013-05-14 17:40:00,92.3,42.7,29.61,North,355,8.0,30.0,18,0.00,,,0.00,Wunderground v.1.15,2013-05-14 22:40:00,
2013-05-14 17:45:00,92.0,43.8,29.60,NNW,344,11.0,30.0,19,0.00,,,0.00,Wunderground v.1.15,2013-05-14 22:45:00,
2013-05-14 17:55:00,91.5,44.8,29.61,North,355,9.0,30.0,20,0.00,,,0.00,Wunderground v.1.15,2013-05-14 22:55:00,
2013-05-14 18:00:00,91.3,43.3,29.61,North,355,6.0,21.0,19,0.00,,,0.00,Wunderground v.1.15,2013-05-14 23:00:00,
2013-05-14 18:10:00,90.8,42.9,29.61,North,360,8.0,21.0,19,0.00,,,0.00,Wunderground v.1.15,2013-05-14 23:10:00,
2013-05-14 18:20:00,90.6,44.0,29.61,North,11,7.0,7.0,20,0.00,,,0.00,Wunderground v.1.15,2013-05-14 23:20:00,
2013-05-14 18:25:00,90.4,42.5,29.61,NE,36,5.0,21.0,19,0.00,,,0.00,Wunderground v.1.15,2013-05-14 23:25:00,
2013-05-14 18:30:00,90.3,43.8,29.62,NE,34,5.0,5.0,20,0.00,,,0.00,Wunderground v.1.15,2013-05-14 23:30:00,
2013-05-14 18:40:00,89.5,43.1,29.62,NNE,15,5.0,21.0,20,0.00,,,0.00,Wunderground v.1.15,2013-05-14 23:40:00,
2013-05-14 18:50:00,88.0,41.9,29.62,North,355,8.0,8.0,20,0.00,,,0.00,Wunderground v.1.15,2013-05-14 23:50:00,
2013-05-14 19:00:00,88.1,43.2,29.63,North,5,8.0,8.0,21,0.00,,,0.00,Wunderground v.1.15,2013-05-15 00:00:00,
2013-05-14 19:05:00,88.4,45.9,29.63,North,5,8.0,21.0,23,0.00,,,0.00,Wunderground v.1.15,2013-05-15 00:05:00,
2013-05-14 19:10:00,88.3,43.4,29.63,NNE,20,6.0,6.0,21,0.00,,,0.00,Wunderground v.1.15,2013-05-15 00:10:00,
2013-05-14 19:20:00,87.5,44.0,29.63,North,5,5.0,21.0,22,0.00,,,0.00,Wunderground v.1.15,2013-05-15 00:20:00,
2013-05-14 19:30:00,86.8,44.6,29.64,North,11,5.0,5.0,23,0.00,,,0.00,Wunderground v.1.15,2013-05-15 00:30:00,
2013-05-14 19:40:00,85.5,43.5,29.64,NE,34,5.0,21.0,23,0.00,,,0.00,Wunderground v.1.15,2013-05-15 00:40:00,
2013-05-14 19:50:00,84.5,42.6,29.64,North,5,5.0,21.0,23,0.00,,,0.00,Wunderground v.1.15,2013-05-15 00:50:00,
2013-05-14 19:55:00,84.0,41.1,29.65,NNE,32,5.0,21.0,22,0.00,,,0.00,Wunderground v.1.15,2013-05-15 00:55:00,
2013-05-14 20:05:00,82.8,40.1,29.65,NNE,26,3.0,21.0,22,0.00,,,0.00,Wunderground v.1.15,2013-05-15 01:05:00,
2013-05-14 20:10:00,82.2,40.7,29.65,North,360,3.0,21.0,23,0.00,,,0.00,Wunderground v.1.15,2013-05-15 01:10:00,
2013-05-14 20:20:00,81.4,38.9,29.66,NNE,20,3.0,21.0,22,0.00,,,0.00,Wunderground v.1.15,2013-05-15 01:20:00,
2013-05-14 20:30:00,79.9,40.9,29.66,NNE,32,3.0,21.0,25,0.00,,,0.00,Wunderground v.1.15,2013-05-15 01:30:00,
2013-05-14 20:40:00,78.6,38.8,29.67,NNE,32,3.0,3.0,24,0.00,,,0.00,Wunderground v.1.15,2013-05-15 01:40:00,
2013-05-14 20:50:00,78.0,38.3,29.67,NNE,15,3.0,3.0,24,0.00,,,0.00,Wunderground v.1.15,2013-05-15 01:50:00,
2013-05-14 21:00:00,77.0,38.5,29.67,North,360,2.0,21.0,25,0.00,,,0.00,Wunderground v.1.15,2013-05-15 02:00:00,
2013-05-14 21:05:00,76.7,38.2,29.68,North,5,2.0,21.0,25,0.00,,,0.00,Wunderground v.1.15,2013-05-15 02:05:00,
2013-05-14 21:10:00,76.3,38.9,29.68,NNW,335,2.0,2.0,26,0.00,,,0.00,Wunderground v.1.15,2013-05-15 02:10:00,
2013-05-14 21:20:00,75.2,38.9,29.68,NNW,343,1.0,1.0,27,0.00,,,0.00,Wunderground v.1.15,2013-05-15 02:20:00,
2013-05-14 21:30:00,74.2,38.1,29.69,NNW,343,0.0,21.0,27,0.00,,,0.00,Wunderground v.1.15,2013-05-15 02:30:00,
2013-05-14 21:40:00,73.2,38.1,29.70,NW,324,0.0,21.0,28,0.00,,,0.00,Wunderground v.1.15,2013-05-15 02:40:00,
2013-05-14 21:50:00,72.4,38.3,29.70,NW,325,0.0,21.0,29,0.00,,,0.00,Wunderground v.1.15,2013-05-15 02:50:00,
2013-05-14 21:55:00,71.7,38.6,29.71,NNW,331,0.0,21.0,30,0.00,,,0.00,Wunderground v.1.15,2013-05-15 02:55:00,
2013-05-14 22:05:00,70.2,39.7,29.72,NNW,331,0.0,21.0,33,0.00,,,0.00,Wunderground v.1.15,2013-05-15 03:05:00,
2013-05-14 22:10:00,69.4,39.8,29.72,NNW,331,0.0,21.0,34,0.00,,,0.00,Wunderground v.1.15,2013-05-15 03:10:00,
2013-05-14 22:20:00,67.8,39.1,29.73,NNW,331,0.0,21.0,35,0.00,,,0.00,Wunderground v.1.15,2013-05-15 03:20:00,
2013-05-14 22:30:00,66.0,39.7,29.73,NNW,331,0.0,21.0,38,0.00,,,0.00,Wunderground v.1.15,2013-05-15 03:30:00,
2013-05-14 22:40:00,65.7,38.7,29.73,NNW,331,0.0,21.0,37,0.00,,,0.00,Wunderground v.1.15,2013-05-15 03:40:00,
2013-05-14 22:50:00,66.6,38.8,29.73,NNW,331,1.0,21.0,36,0.00,,,0.00,Wunderground v.1.15,2013-05-15 03:50:00,
2013-05-14 23:00:00,66.1,38.4,29.73,NNW,331,0.0,21.0,36,0.00,,,0.00,Wunderground v.1.15,2013-05-15 04:00:00,
2013-05-14 23:05:00,65.3,38.3,29.73,NNW,336,1.0,21.0,37,0.00,,,0.00,Wunderground v.1.15,2013-05-15 04:05:00,
2013-05-14 23:10:00,65.1,38.2,29.74,NNW,339,1.0,1.0,37,0.00,,,0.00,Wunderground v.1.15,2013-05-15 04:10:00,
2013-05-14 23:15:00,64.8,38.6,29.73,NNW,339,0.0,21.0,38,0.00,,,0.00,Wunderground v.1.15,2013-05-15 04:15:00,
2013-05-14 23:20:00,64.1,39.3,29.73,NNW,340,0.0,21.0,40,0.00,,,0.00,Wunderground v.1.15,2013-05-15 04:20:00,
2013-05-14 23:25:00,63.6,40.1,29.73,NNE,15,2.0,21.0,42,0.00,,,0.00,Wunderground v.1.15,2013-05-15 04:25:00,
2013-05-14 23:30:00,63.0,40.1,29.73,NNE,15,2.0,2.0,43,0.00,,,0.00,Wunderground v.1.15,2013-05-15 04:30:00,
2013-05-14 23:35:00,63.2,39.1,29.73,NNE,15,1.0,3.0,41,0.00,,,0.00,Wunderground v.1.15,2013-05-15 04:35:00,
2013-05-14 23:40:00,63.9,38.4,29.72,NNE,32,1.0,21.0,39,0.00,,,0.00,Wunderground v.1.15,2013-05-15 04:40:00,
2013-05-14 23:50:00,65.2,38.3,29.72,NNE,32,2.0,2.0,37,0.00,,,0.00,Wunderground v.1.15,2013-05-15 04:50:00,
2013-05-14 23:55:00,65.4,37.7,29.72,NE,34,2.0,21.0,36,0.00,,,0.00,Wunderground v.1.15,2013-05-15 04:55:00,